Portada
METAR-TAF:

METAR-TAF

Aeropuertos :

Aeropuerto de Huesca-Pirineos

Huesca, España

latitud: 42-04-32N, longitud: 0-18-58W, altitud: 539 m

Observación

El informe se hizo hace 33 minutos, a las 08:00 UTC
Viento 5 kt del suroeste, variando entre sur y oeste-suroeste
Temperatura 11°C
Humedad 94%
Presión 1006 hPa
Visibilidad 10 km o más
sin nubes por debajo de 1500 m y sin presencia de cumulonimbus.

METAR: LEHC 150800Z 22005KT 170V250 CAVOK 11/10 Q1006

Hora: 10:33 (08:33 UTC)

Pronóstico

El informe se hizo hace 6 horas y 33 minutos, a las 02:00 UTC
Pronóstico válido del 15 a las 03 UTC al 16 a las 03 UTC
Viento 12 kt del oeste
Visibilidad 10 km o más
Nubes dispersas a una altura de 3500 ft
Evolucionando progresivamente
del 15 a las 18 UTC al 15 a las 20 UTC
Viento 3 kt con dirección variable

TAF: LEHC 150200Z 1503/1603 27012KT 9999 SCT035 TX19/1515Z TN12/1506Z BECMG 1518/1520 VRB03KT

Observaciones y pronósticos meteorológicos de más de 4000 aeropuertos (mensajes METAR y TAF).

Los puntos amarillos y rojos representan las estaciones disponibles.

Ponga el ratón en el punto deseado para ver el nombre de la estación.

Haga clic para ver las observaciones y los pronósticos meteorológicos.

Para cambiar el mapa : haga clic en los botones verdes con una cruz de color negro para hacer un zoom, en el botón verde con un guión para alejar o en las flechas verdes para mapas adyacentes.


METAR-TAF: